createdAt,value
2017-12-04T00:01:48.267Z,93.12
2017-12-04T00:04:15.786Z,93.12
2017-12-04T00:06:43.291Z,93.33
2017-12-04T00:09:10.802Z,93.25
2017-12-04T00:11:38.329Z,93.26
2017-12-04T00:14:05.858Z,93.27
2017-12-04T00:16:33.377Z,93.25
2017-12-04T00:19:00.902Z,93.41
2017-12-04T00:21:28.418Z,93.18
2017-12-04T00:23:55.937Z,93.34
2017-12-04T00:26:23.458Z,93.25
2017-12-04T00:28:50.984Z,93.51
2017-12-04T00:31:18.506Z,93.39
2017-12-04T00:33:46.029Z,93.74
2017-12-04T00:36:13.567Z,93.74
2017-12-04T00:38:41.087Z,93.62
2017-12-04T00:41:08.611Z,93.43
2017-12-04T00:43:36.129Z,93.63
2017-12-04T00:46:03.636Z,93.58
2017-12-04T00:48:31.158Z,93.51
2017-12-04T00:50:58.690Z,93.55
2017-12-04T00:53:26.208Z,93.59
2017-12-04T00:55:53.742Z,93.59
2017-12-04T00:58:21.296Z,93.65
2017-12-04T01:00:48.814Z,93.75
2017-12-04T01:03:16.343Z,93.76
2017-12-04T01:05:43.860Z,93.67
2017-12-04T01:08:11.368Z,93.90
2017-12-04T01:10:38.893Z,93.97
2017-12-04T01:13:06.426Z,93.83
2017-12-04T01:15:33.942Z,93.73
2017-12-04T01:18:01.482Z,93.82
2017-12-04T01:20:29.003Z,93.78
2017-12-04T01:22:56.524Z,93.38
2017-12-04T01:25:24.046Z,93.54
2017-12-04T01:27:51.579Z,93.69
2017-12-04T01:30:19.096Z,93.66
2017-12-04T01:32:46.617Z,93.58
2017-12-04T01:35:14.146Z,93.22
2017-12-04T01:37:41.668Z,93.38
2017-12-04T01:40:09.189Z,93.41
2017-12-04T01:42:36.708Z,93.49
2017-12-04T01:45:04.228Z,93.38
2017-12-04T01:47:31.750Z,93.46
2017-12-04T01:49:59.262Z,93.30
2017-12-04T01:52:26.774Z,93.52
2017-12-04T01:54:54.288Z,93.12
2017-12-04T01:57:21.804Z,93.07
2017-12-04T01:59:49.326Z,93.02
2017-12-04T02:02:16.852Z,93.08
2017-12-04T02:04:44.380Z,93.02
2017-12-04T02:07:11.915Z,92.80
2017-12-04T02:09:39.428Z,92.92
2017-12-04T02:12:06.942Z,92.75
2017-12-04T02:14:34.454Z,92.73
2017-12-04T02:17:01.978Z,92.71
2017-12-04T02:19:29.495Z,92.64
2017-12-04T02:21:57.009Z,92.67
2017-12-04T02:24:24.525Z,92.63
2017-12-04T02:26:52.061Z,92.72
2017-12-04T02:29:19.575Z,92.73
2017-12-04T02:31:47.116Z,92.78
2017-12-04T02:34:14.629Z,92.98
2017-12-04T02:36:42.142Z,92.71
2017-12-04T02:39:09.662Z,92.84
2017-12-04T02:41:37.171Z,92.62
2017-12-04T02:44:04.688Z,92.92
2017-12-04T02:46:32.256Z,92.75
2017-12-04T02:48:59.756Z,92.96
2017-12-04T02:51:27.289Z,92.77
2017-12-04T02:53:54.805Z,93.00
2017-12-04T02:56:22.338Z,93.16
2017-12-04T02:58:49.869Z,92.99
2017-12-04T03:01:17.390Z,92.81
2017-12-04T03:03:44.929Z,93.10
2017-12-04T03:06:12.445Z,93.09
2017-12-04T03:08:39.970Z,93.01
2017-12-04T03:11:07.494Z,92.89
2017-12-04T03:13:35.018Z,92.88
2017-12-04T03:16:02.546Z,92.80
2017-12-04T03:18:30.071Z,92.72
2017-12-04T03:20:57.597Z,92.85
2017-12-04T03:23:25.115Z,92.81
2017-12-04T03:25:52.636Z,92.68
2017-12-04T03:28:20.151Z,92.53
2017-12-04T03:30:47.667Z,92.60
2017-12-04T03:33:15.190Z,92.43
2017-12-04T03:35:42.708Z,92.34
2017-12-04T03:38:10.246Z,92.38
2017-12-04T03:40:37.762Z,92.39
2017-12-04T03:43:05.287Z,92.55
2017-12-04T03:45:32.805Z,92.49
2017-12-04T03:48:00.342Z,92.46
2017-12-04T03:50:27.874Z,92.37
2017-12-04T03:52:55.402Z,92.35
2017-12-04T03:55:22.918Z,92.50
2017-12-04T03:57:50.444Z,92.31
2017-12-04T04:00:17.968Z,92.18
2017-12-04T04:02:45.493Z,92.19
2017-12-04T04:05:13.020Z,92.06
2017-12-04T04:07:40.543Z,92.00
2017-12-04T04:10:08.066Z,92.08
2017-12-04T04:12:35.597Z,92.26
2017-12-04T04:15:03.112Z,92.09
2017-12-04T04:17:30.649Z,92.00
2017-12-04T04:19:58.167Z,92.00
2017-12-04T04:22:25.696Z,91.85
2017-12-04T04:24:53.208Z,91.73
2017-12-04T04:27:20.763Z,91.77
2017-12-04T04:29:48.293Z,91.70
2017-12-04T04:32:15.814Z,91.78
2017-12-04T04:34:43.337Z,91.60
2017-12-04T04:37:10.851Z,91.58
2017-12-04T04:39:38.365Z,91.53
2017-12-04T04:42:05.886Z,91.52
2017-12-04T04:44:33.410Z,91.49
2017-12-04T04:47:00.929Z,91.34
2017-12-04T04:49:28.450Z,91.26
2017-12-04T04:51:55.966Z,91.05
2017-12-04T04:54:23.506Z,91.06
2017-12-04T04:56:51.040Z,91.19
2017-12-04T04:59:18.557Z,91.10
2017-12-04T05:01:46.095Z,90.98
2017-12-04T05:04:13.618Z,90.90
2017-12-04T05:06:41.134Z,91.19
2017-12-04T05:09:08.658Z,91.03
2017-12-04T05:11:36.165Z,91.00
2017-12-04T05:14:03.682Z,90.88
2017-12-04T05:16:31.207Z,90.86
2017-12-04T05:18:58.715Z,90.68
2017-12-04T05:21:26.235Z,90.53
2017-12-04T05:23:53.772Z,90.29
2017-12-04T05:26:21.407Z,90.39
2017-12-04T05:28:48.915Z,90.13
2017-12-04T05:31:16.425Z,90.03
2017-12-04T05:33:43.941Z,89.91
2017-12-04T05:36:11.475Z,89.74
2017-12-04T05:38:38.984Z,89.88
2017-12-04T05:41:06.553Z,89.87
2017-12-04T05:43:34.073Z,89.75
2017-12-04T05:46:01.667Z,89.62
2017-12-04T05:48:29.186Z,89.53
2017-12-04T05:50:56.821Z,89.41
2017-12-04T05:53:24.332Z,89.40
2017-12-04T05:55:51.914Z,89.13
2017-12-04T05:58:19.438Z,89.09
2017-12-04T06:00:46.952Z,89.19
2017-12-04T06:03:14.465Z,88.99
2017-12-04T06:05:41.980Z,88.82
2017-12-04T06:08:09.530Z,88.87
2017-12-04T06:10:37.073Z,88.86
2017-12-04T06:13:04.589Z,88.93
2017-12-04T06:15:32.116Z,88.77
2017-12-04T06:17:59.629Z,88.88
2017-12-04T06:20:27.155Z,88.99
2017-12-04T06:22:54.668Z,88.86
2017-12-04T06:25:22.194Z,88.87
2017-12-04T06:27:49.791Z,88.92
2017-12-04T06:30:17.322Z,88.96
2017-12-04T06:32:44.837Z,88.89
2017-12-04T06:35:12.346Z,88.83
2017-12-04T06:37:39.881Z,88.85
2017-12-04T06:40:07.402Z,88.70
2017-12-04T06:42:34.923Z,88.67
2017-12-04T06:45:02.453Z,88.68
2017-12-04T06:47:29.968Z,88.75
2017-12-04T06:49:57.482Z,88.74
2017-12-04T06:52:24.985Z,88.69
2017-12-04T06:54:52.511Z,88.79
2017-12-04T06:57:20.020Z,88.70
2017-12-04T06:59:47.542Z,88.59
2017-12-04T07:02:15.060Z,88.59
2017-12-04T07:04:42.582Z,88.55
2017-12-04T07:07:10.092Z,88.39
2017-12-04T07:09:37.601Z,88.41
2017-12-04T07:12:05.122Z,88.20
2017-12-04T07:14:32.630Z,88.20
2017-12-04T07:17:00.146Z,88.06
2017-12-04T07:19:27.665Z,88.27
2017-12-04T07:21:55.194Z,88.22
2017-12-04T07:24:22.721Z,88.06
2017-12-04T07:26:50.238Z,87.98
2017-12-04T07:29:17.768Z,87.86
2017-12-04T07:31:45.287Z,87.90
2017-12-04T07:34:12.800Z,87.48
2017-12-04T07:36:40.314Z,87.65
2017-12-04T07:39:07.834Z,87.64
2017-12-04T07:41:35.351Z,87.51
2017-12-04T07:44:02.863Z,87.58
2017-12-04T07:46:30.377Z,87.52
2017-12-04T07:48:57.908Z,87.59
2017-12-04T07:51:25.419Z,87.26
2017-12-04T07:53:52.936Z,86.93
2017-12-04T07:56:20.451Z,87.04
2017-12-04T07:58:48.080Z,86.71
2017-12-04T08:01:15.597Z,86.68
2017-12-04T08:03:43.109Z,86.50
2017-12-04T08:06:10.651Z,85.66
2017-12-04T08:08:38.160Z,85.37
2017-12-04T08:11:05.690Z,84.91
2017-12-04T08:13:33.211Z,84.97
2017-12-04T08:16:00.721Z,84.89
2017-12-04T08:18:28.240Z,84.71
2017-12-04T08:20:55.756Z,84.99
2017-12-04T08:23:23.284Z,84.36
2017-12-04T08:25:50.797Z,84.32
2017-12-04T08:28:18.306Z,83.83
2017-12-04T08:30:45.826Z,83.73
2017-12-04T08:33:13.337Z,84.29
2017-12-04T08:35:40.850Z,84.41
2017-12-04T08:38:08.366Z,84.39
2017-12-04T08:40:35.887Z,84.30
2017-12-04T08:43:03.393Z,83.76
2017-12-04T08:45:30.909Z,83.11
2017-12-04T08:47:58.429Z,83.60
2017-12-04T08:50:25.949Z,82.80
2017-12-04T08:52:53.526Z,82.74
2017-12-04T08:55:21.043Z,81.83
2017-12-04T08:57:48.568Z,81.09
2017-12-04T09:00:16.086Z,81.37
2017-12-04T09:02:43.623Z,81.46
2017-12-04T09:05:11.142Z,81.31
2017-12-04T09:07:38.661Z,81.39
2017-12-04T09:10:06.201Z,81.22
2017-12-04T09:12:33.718Z,81.52
2017-12-04T09:15:01.235Z,81.05
2017-12-04T09:17:28.750Z,81.03
2017-12-04T09:19:56.270Z,80.89
2017-12-04T09:22:23.783Z,80.22
2017-12-04T09:24:51.313Z,79.86
2017-12-04T09:27:18.829Z,79.80
2017-12-04T09:29:46.346Z,80.44
2017-12-04T09:32:13.867Z,80.86
2017-12-04T09:34:41.389Z,80.67
2017-12-04T09:37:08.944Z,80.50
2017-12-04T09:39:36.457Z,80.02
2017-12-04T09:42:03.983Z,79.80
2017-12-04T09:44:31.514Z,80.18
2017-12-04T09:46:59.038Z,80.08
2017-12-04T09:49:26.582Z,80.42
2017-12-04T09:51:54.098Z,80.32
2017-12-04T09:54:21.634Z,79.75
2017-12-04T09:56:49.138Z,81.06
2017-12-04T09:59:16.653Z,81.74
2017-12-04T10:01:44.166Z,83.00
2017-12-04T10:04:11.721Z,84.59
2017-12-04T10:06:39.222Z,85.36
2017-12-04T10:09:06.726Z,86.98
2017-12-04T10:11:34.254Z,88.17
2017-12-04T10:14:01.772Z,89.00
2017-12-04T10:16:29.304Z,89.17
2017-12-04T10:18:56.819Z,89.72
2017-12-04T10:21:24.348Z,89.56
2017-12-04T10:23:51.964Z,90.15
2017-12-04T10:26:19.503Z,90.02
2017-12-04T10:28:47.017Z,89.75
2017-12-04T10:31:14.527Z,89.10
2017-12-04T10:33:42.037Z,88.35
2017-12-04T10:36:09.546Z,87.55
2017-12-04T10:38:37.063Z,87.34
2017-12-04T10:41:04.579Z,87.03
2017-12-04T10:43:32.163Z,87.32
2017-12-04T10:45:59.686Z,87.76
2017-12-04T10:48:27.195Z,87.42
2017-12-04T10:50:54.709Z,87.46
2017-12-04T10:53:22.220Z,87.52
2017-12-04T10:55:49.732Z,87.95
2017-12-04T10:58:17.240Z,88.02
2017-12-04T11:00:44.761Z,87.81
2017-12-04T11:03:12.269Z,87.56
2017-12-04T11:05:39.788Z,87.64
2017-12-04T11:08:07.298Z,88.17
2017-12-04T11:10:34.820Z,87.93
2017-12-04T11:13:02.336Z,90.27
2017-12-04T11:15:29.875Z,88.46
2017-12-04T11:17:57.397Z,88.41
2017-12-04T11:20:24.915Z,88.23
2017-12-04T11:22:52.432Z,88.12
2017-12-04T11:25:19.964Z,88.08
2017-12-04T11:27:47.477Z,87.82
2017-12-04T11:30:14.987Z,88.07
2017-12-04T11:32:42.489Z,87.69
2017-12-04T11:35:10.032Z,87.28
2017-12-04T11:37:38.137Z,86.51
2017-12-04T11:40:07.077Z,86.31
2017-12-04T11:42:35.974Z,86.18
2017-12-04T11:45:05.421Z,86.43
2017-12-04T11:47:33.550Z,86.56
2017-12-04T11:50:16.544Z,86.03
2017-12-04T11:52:44.211Z,85.89
2017-12-04T11:55:11.791Z,85.71
2017-12-04T11:57:41.226Z,85.36
2017-12-04T12:00:08.737Z,85.12
2017-12-04T12:02:36.254Z,85.19
2017-12-04T12:05:03.874Z,85.07
2017-12-04T12:07:37.635Z,84.86
2017-12-04T12:10:05.212Z,84.65
2017-12-04T12:12:32.852Z,84.59
2017-12-04T12:15:00.384Z,83.80
2017-12-04T12:17:27.977Z,83.23
2017-12-04T12:19:55.490Z,83.64
2017-12-04T12:22:23.052Z,83.51
2017-12-04T12:24:50.569Z,82.79
2017-12-04T12:27:18.105Z,82.18
2017-12-04T12:29:45.622Z,81.63
2017-12-04T12:32:13.200Z,81.03
2017-12-04T12:34:40.914Z,80.36
2017-12-04T12:37:08.455Z,79.60
2017-12-04T12:39:36.080Z,80.95
2017-12-04T12:42:03.638Z,80.79
2017-12-04T12:44:31.220Z,79.53
2017-12-04T13:04:38.569Z,79.99
2017-12-04T13:07:06.088Z,78.82
2017-12-04T13:09:33.617Z,78.79
2017-12-04T13:12:01.215Z,78.45
2017-12-04T13:14:28.771Z,78.17
2017-12-04T13:16:56.292Z,77.85
2017-12-04T13:19:23.807Z,78.22
2017-12-04T13:21:51.347Z,79.14
2017-12-04T13:24:18.932Z,78.64
2017-12-04T13:26:46.450Z,77.84
2017-12-04T13:32:29.750Z,76.75
2017-12-04T13:40:51.834Z,79.00
2017-12-04T13:43:20.244Z,79.08
2017-12-04T13:45:47.853Z,79.45
2017-12-04T13:48:15.513Z,79.48
2017-12-04T13:50:43.182Z,79.94
2017-12-04T13:53:10.872Z,80.05
2017-12-04T13:55:38.549Z,80.02
2017-12-04T13:58:06.127Z,80.14
2017-12-04T14:00:33.763Z,80.44
2017-12-04T14:03:01.347Z,80.83
2017-12-04T14:05:28.899Z,80.98
2017-12-04T14:07:56.525Z,80.76
2017-12-04T14:10:24.917Z,80.69
2017-12-04T14:12:52.479Z,79.68
2017-12-04T14:15:19.986Z,79.36
2017-12-04T14:17:47.538Z,79.03
2017-12-04T14:20:15.086Z,79.22
2017-12-04T14:22:42.658Z,78.99
2017-12-04T14:25:10.248Z,79.49
2017-12-04T14:27:37.821Z,80.37
2017-12-04T14:30:05.444Z,80.96
2017-12-04T14:32:33.039Z,81.34
2017-12-04T14:35:00.566Z,81.56
2017-12-04T14:37:28.080Z,81.88
2017-12-04T14:39:55.590Z,82.34
2017-12-04T14:42:23.124Z,82.36
2017-12-04T14:44:50.734Z,82.77
2017-12-04T14:47:18.327Z,82.97
2017-12-04T14:49:46.015Z,83.24
2017-12-04T14:52:13.703Z,83.29
2017-12-04T14:54:41.270Z,82.99
2017-12-04T14:57:08.833Z,83.27
2017-12-04T14:59:36.352Z,83.15
2017-12-04T15:02:03.866Z,83.03
2017-12-04T15:04:31.457Z,83.22
2017-12-04T15:06:59.086Z,83.00
2017-12-04T15:09:26.605Z,83.02
2017-12-04T15:11:54.113Z,83.17
2017-12-04T15:14:21.630Z,82.95
2017-12-04T15:16:49.162Z,83.13
2017-12-04T15:19:16.680Z,83.62
2017-12-04T15:21:44.202Z,84.07
2017-12-04T15:24:11.715Z,84.03
2017-12-04T15:26:39.226Z,83.99
2017-12-04T15:29:06.752Z,84.02
2017-12-04T15:31:34.497Z,84.22
2017-12-04T15:34:03.252Z,84.44
2017-12-04T15:36:30.768Z,84.11
2017-12-04T15:38:58.283Z,84.29
2017-12-04T15:41:25.806Z,84.33
2017-12-04T15:43:53.316Z,83.99
2017-12-04T15:46:20.837Z,83.77
2017-12-04T15:48:48.363Z,83.58
2017-12-04T15:51:15.888Z,83.58
2017-12-04T15:53:43.413Z,83.67
2017-12-04T15:56:10.941Z,83.48
2017-12-04T15:58:38.472Z,83.33
2017-12-04T16:01:05.988Z,82.71
2017-12-04T16:03:33.498Z,82.77
2017-12-04T16:06:01.006Z,82.54
2017-12-04T16:08:28.516Z,82.46
2017-12-04T16:10:56.089Z,82.74
2017-12-04T16:13:23.584Z,82.75
2017-12-04T16:15:51.101Z,82.84
2017-12-04T16:18:18.612Z,82.79
2017-12-04T16:20:46.132Z,82.76
2017-12-04T16:23:13.656Z,82.79
2017-12-04T16:25:41.173Z,82.63
2017-12-04T16:28:08.680Z,82.48
2017-12-04T16:30:36.204Z,82.56
2017-12-04T16:33:03.732Z,82.16
2017-12-04T16:35:31.245Z,82.35
2017-12-04T16:37:58.762Z,82.54
2017-12-04T16:40:26.275Z,82.57
2017-12-04T16:42:53.782Z,82.55
2017-12-04T16:45:21.326Z,82.44
2017-12-04T16:47:48.841Z,82.49
2017-12-04T16:50:16.383Z,82.72
2017-12-04T16:52:43.893Z,82.79
2017-12-04T16:55:11.403Z,82.93
2017-12-04T16:57:39.025Z,82.69
2017-12-04T17:00:06.542Z,82.62
2017-12-04T17:02:34.065Z,83.14
2017-12-04T17:05:01.588Z,82.91
2017-12-04T17:07:29.093Z,83.21
2017-12-04T17:09:56.620Z,83.48
2017-12-04T17:12:24.173Z,83.61
2017-12-04T17:14:51.746Z,83.35
2017-12-04T17:17:19.267Z,83.54
2017-12-04T17:19:46.781Z,83.64
2017-12-04T17:22:14.286Z,83.64
2017-12-04T17:24:41.868Z,83.80
2017-12-04T17:27:09.395Z,84.16
2017-12-04T17:29:36.904Z,84.67
2017-12-04T17:32:04.420Z,84.50
2017-12-04T17:34:31.943Z,84.51
2017-12-04T17:36:59.482Z,84.37
2017-12-04T17:39:26.997Z,84.54
2017-12-04T17:41:54.519Z,84.72
2017-12-04T17:44:22.149Z,85.46
2017-12-04T17:46:49.665Z,85.50
2017-12-04T17:49:17.267Z,85.63
2017-12-04T17:51:44.821Z,85.64
2017-12-04T17:54:12.330Z,85.62
2017-12-04T17:56:39.925Z,85.89
2017-12-04T17:59:07.439Z,85.81
2017-12-04T18:01:35.161Z,86.43
2017-12-04T18:04:02.814Z,86.02
2017-12-04T18:06:30.328Z,86.42
2017-12-04T18:08:57.836Z,86.36
2017-12-04T18:11:25.374Z,86.84
2017-12-04T18:13:52.890Z,86.85
2017-12-04T18:16:20.440Z,86.75
2017-12-04T18:18:47.958Z,87.03
2017-12-04T18:21:15.546Z,86.84
2017-12-04T18:23:43.106Z,86.83
2017-12-04T18:26:10.641Z,86.63
2017-12-04T18:28:38.151Z,86.45
2017-12-04T18:31:05.780Z,86.79
2017-12-04T18:33:33.317Z,87.06
2017-12-04T18:36:00.835Z,86.65
2017-12-04T18:38:28.353Z,87.33
2017-12-04T18:40:55.857Z,86.95
2017-12-04T18:43:23.510Z,87.03
2017-12-04T18:45:51.019Z,86.80
2017-12-04T18:48:18.536Z,87.18
2017-12-04T18:50:46.141Z,87.17
2017-12-04T18:53:13.666Z,87.31
2017-12-04T18:55:41.174Z,87.07
2017-12-04T18:58:08.746Z,87.39
2017-12-04T19:00:36.270Z,87.04
2017-12-04T19:03:03.787Z,87.45
2017-12-04T19:05:31.324Z,87.47
2017-12-04T19:07:58.939Z,87.50
2017-12-04T19:10:26.466Z,87.75
2017-12-04T19:12:53.983Z,87.67
2017-12-04T19:15:21.553Z,87.27
2017-12-04T19:17:49.072Z,87.49
2017-12-04T19:20:16.683Z,87.61
2017-12-04T19:22:44.233Z,87.46
2017-12-04T19:25:11.787Z,87.29
2017-12-04T19:27:39.334Z,87.41
2017-12-04T19:30:06.895Z,87.31
2017-12-04T19:32:34.469Z,87.56
2017-12-04T19:35:01.998Z,87.23
2017-12-04T19:37:29.561Z,87.04
2017-12-04T19:39:57.073Z,87.31
2017-12-04T19:42:25.857Z,87.04
2017-12-04T19:44:53.653Z,86.98
2017-12-04T19:47:21.224Z,87.12
2017-12-04T19:49:48.738Z,86.99
2017-12-04T19:52:16.250Z,87.22
2017-12-04T19:54:43.779Z,86.86
2017-12-04T19:57:11.519Z,86.76
2017-12-04T19:59:39.086Z,86.87
2017-12-04T20:02:06.600Z,86.86
2017-12-04T20:04:34.118Z,86.97
2017-12-04T20:07:01.638Z,87.16
2017-12-04T20:09:29.152Z,87.41
2017-12-04T20:11:56.778Z,87.39
2017-12-04T20:14:24.320Z,87.44
2017-12-04T20:16:51.837Z,87.80
2017-12-04T20:19:19.349Z,88.03
2017-12-04T20:21:46.909Z,87.85
2017-12-04T20:24:14.430Z,88.09
2017-12-04T20:26:41.942Z,88.33
2017-12-04T20:29:09.468Z,88.14
2017-12-04T20:31:36.990Z,88.12
2017-12-04T20:34:04.598Z,88.50
2017-12-04T20:36:32.286Z,88.50
2017-12-04T20:38:59.803Z,88.70
2017-12-04T20:41:27.492Z,88.98
2017-12-04T20:43:55.160Z,88.66
2017-12-04T20:46:22.685Z,88.62
2017-12-04T20:48:50.207Z,89.01
2017-12-04T20:51:17.735Z,89.24
2017-12-04T20:53:45.263Z,89.00
2017-12-04T20:56:12.857Z,88.81
2017-12-04T20:58:40.373Z,88.98
2017-12-04T21:01:07.880Z,88.83
2017-12-04T21:03:35.399Z,88.81
2017-12-04T21:06:02.925Z,88.75
2017-12-04T21:08:42.250Z,88.87
2017-12-04T21:11:21.740Z,88.99
2017-12-04T21:14:01.138Z,88.86
2017-12-04T21:16:51.325Z,88.89
2017-12-04T21:19:19.229Z,88.68
2017-12-04T21:21:46.753Z,88.69
2017-12-04T21:24:14.382Z,88.86
2017-12-04T21:26:41.897Z,89.05
2017-12-04T21:29:09.422Z,88.99
2017-12-04T21:31:37.062Z,89.05
2017-12-04T21:34:04.573Z,89.39
2017-12-04T21:36:32.337Z,89.57
2017-12-04T21:38:59.862Z,89.59
2017-12-04T21:41:27.502Z,89.45
2017-12-04T21:43:55.056Z,89.84
2017-12-04T21:46:22.618Z,89.45
2017-12-04T21:48:50.130Z,89.66
2017-12-04T21:51:17.655Z,89.52
2017-12-04T21:53:45.308Z,89.58
2017-12-04T21:56:12.866Z,89.39
2017-12-04T21:58:40.386Z,89.37
2017-12-04T22:01:07.976Z,89.24
2017-12-04T22:03:35.480Z,89.09
2017-12-04T22:06:02.990Z,89.21
2017-12-04T22:08:30.519Z,89.20
2017-12-04T22:10:58.034Z,89.36
2017-12-04T22:13:25.580Z,89.42
2017-12-04T22:15:53.156Z,89.27
2017-12-04T22:18:20.642Z,89.16
2017-12-04T22:20:48.262Z,89.07
2017-12-04T22:23:15.935Z,89.12
2017-12-04T22:25:43.465Z,89.19
2017-12-04T22:28:11.056Z,89.41
2017-12-04T22:30:38.762Z,89.48
2017-12-04T22:33:06.389Z,89.78
2017-12-04T22:35:33.897Z,90.13
2017-12-04T22:38:01.491Z,89.79
2017-12-04T22:40:29.016Z,89.55
2017-12-04T22:42:56.614Z,89.52
2017-12-04T22:45:24.138Z,89.74
2017-12-04T22:47:51.660Z,90.12
2017-12-04T22:50:19.408Z,90.21
2017-12-04T22:52:46.935Z,89.97
2017-12-04T22:55:14.513Z,90.01
2017-12-04T22:57:42.048Z,90.00
2017-12-04T23:00:09.737Z,90.08
2017-12-04T23:02:37.262Z,90.34
2017-12-04T23:05:04.876Z,89.95
2017-12-04T23:07:32.386Z,90.21
2017-12-04T23:09:59.897Z,90.19
2017-12-04T23:12:27.457Z,90.12
2017-12-04T23:14:54.964Z,90.38
2017-12-04T23:17:22.478Z,90.44
2017-12-04T23:19:50.004Z,90.41
2017-12-04T23:22:17.566Z,90.58
2017-12-04T23:24:45.934Z,90.68
2017-12-04T23:27:13.442Z,90.64
2017-12-04T23:29:40.976Z,90.51
2017-12-04T23:32:08.482Z,90.61
2017-12-04T23:34:36.081Z,90.50
2017-12-04T23:37:03.650Z,90.59
2017-12-04T23:39:31.161Z,90.78
2017-12-04T23:41:58.686Z,90.56
2017-12-04T23:44:26.205Z,90.43
2017-12-04T23:46:53.742Z,90.30
2017-12-04T23:49:21.275Z,90.35
2017-12-04T23:51:48.806Z,90.16
2017-12-04T23:54:21.304Z,90.14
2017-12-04T23:56:48.831Z,90.25
2017-12-04T23:59:16.348Z,90.21
